Time;durP1;ratioP1;P1;durP2;ratioP2;P2;SDS_P1;SDS_P2;PMS_P1;PMS_P2;Temp;Humidity;BMP_temperature;BMP_pressure;BME280_temperature;BME280_humidity;BME280_pressure;Samples;Min_cycle;Max_cycle;Signal;HPM_P1;HPM_P2
2023/01/14 00:00:49;;;;;;;13.38;1.60;;;6.90;99.90;;;;;;5042442;28;20040;-76
2023/01/14 00:03:15;;;;;;;12.85;1.75;;;6.90;99.90;;;;;;5018517;28;20041;-77
2023/01/14 00:05:41;;;;;;;11.45;1.30;;;6.90;99.90;;;;;;5027576;28;20052;-77
2023/01/14 00:08:08;;;;;;;16.23;1.20;;;6.90;99.90;;;;;;5026234;28;20060;-76
2023/01/14 00:10:34;;;;;;;15.73;1.70;;;6.90;99.90;;;;;;5043766;28;20033;-77
2023/01/14 00:13:00;;;;;;;14.95;1.90;;;6.90;99.90;;;;;;5035288;28;20033;-76
2023/01/14 00:15:27;;;;;;;18.27;2.05;;;6.90;99.90;;;;;;5029348;28;20782;-77
2023/01/14 00:17:53;;;;;;;12.48;1.80;;;6.90;99.90;;;;;;5026395;28;20037;-76
2023/01/14 00:20:19;;;;;;;16.80;2.30;;;6.90;99.90;;;;;;5027047;28;20067;-77
2023/01/14 00:22:45;;;;;;;18.50;2.90;;;6.90;99.90;;;;;;5033763;28;20063;-77
2023/01/14 00:25:14;;;;;;;16.30;2.30;;;6.80;99.90;;;;;;5028304;28;20041;-77
2023/01/14 00:27:41;;;;;;;12.95;1.90;;;6.70;99.90;;;;;;5044978;28;20051;-77
2023/01/14 00:30:07;;;;;;;19.52;2.03;;;6.70;99.90;;;;;;5011762;28;20037;-77
2023/01/14 00:32:34;;;;;;;15.52;2.58;;;6.60;99.90;;;;;;5033453;28;20036;-77
2023/01/14 00:35:00;;;;;;;15.90;1.77;;;6.60;99.90;;;;;;5039215;28;20037;-77
2023/01/14 00:37:26;;;;;;;17.45;2.17;;;6.50;99.90;;;;;;5042206;28;20029;-76
2023/01/14 00:39:52;;;;;;;16.90;2.20;;;6.40;99.90;;;;;;5023779;28;20472;-77
2023/01/14 00:42:19;;;;;;;18.42;1.88;;;6.40;99.90;;;;;;5002819;28;20047;-76
2023/01/14 00:44:46;;;;;;;16.35;2.08;;;6.30;99.90;;;;;;5012789;28;20033;-77
2023/01/14 00:47:12;;;;;;;19.58;2.70;;;6.30;99.90;;;;;;5041871;28;20506;-77
2023/01/14 00:49:38;;;;;;;18.80;2.65;;;6.30;99.90;;;;;;5040983;28;20045;-77
2023/01/14 00:52:05;;;;;;;15.25;2.13;;;6.30;99.90;;;;;;5032987;28;20571;-76
2023/01/14 00:54:36;;;;;;;17.50;2.10;;;6.30;99.90;;;;;;5009090;28;20049;-76
2023/01/14 00:57:05;;;;;;;13.38;1.42;;;6.30;99.90;;;;;;5042086;28;20503;-76
2023/01/14 00:59:31;;;;;;;18.67;2.55;;;6.40;99.90;;;;;;5041162;28;20491;-76
2023/01/14 01:01:57;;;;;;;20.00;2.75;;;6.40;99.90;;;;;;5036926;28;20045;-77
2023/01/14 01:04:24;;;;;;;22.55;3.22;;;6.40;99.90;;;;;;5028374;28;20056;-77
2023/01/14 01:06:51;;;;;;;19.25;2.72;;;6.50;99.90;;;;;;5043722;28;20033;-76
2023/01/14 01:09:19;;;;;;;14.00;2.10;;;6.50;99.90;;;;;;5026931;28;20404;-76
2023/01/14 01:11:45;;;;;;;24.27;3.65;;;6.50;99.90;;;;;;5003358;28;20056;-76
2023/01/14 01:14:11;;;;;;;21.42;2.20;;;6.60;99.90;;;;;;5043599;28;20036;-77
2023/01/14 01:16:38;;;;;;;21.92;3.25;;;6.60;99.90;;;;;;5043513;28;20055;-76
2023/01/14 01:19:06;;;;;;;21.83;3.22;;;6.60;99.90;;;;;;5028377;28;20385;-77
2023/01/14 01:21:32;;;;;;;23.13;3.15;;;6.60;99.90;;;;;;5022515;28;20037;-76
2023/01/14 01:23:58;;;;;;;22.70;3.03;;;6.60;99.90;;;;;;5024864;28;20033;-77
2023/01/14 01:26:25;;;;;;;20.50;2.78;;;6.60;99.90;;;;;;5041652;28;20036;-77
2023/01/14 01:28:54;;;;;;;17.98;2.53;;;6.60;99.90;;;;;;5026451;28;20045;-77
2023/01/14 01:31:21;;;;;;;21.00;2.65;;;6.60;99.90;;;;;;5018160;28;20415;-76
2023/01/14 01:33:48;;;;;;;15.50;2.10;;;6.60;99.90;;;;;;5023204;28;20613;-78
2023/01/14 01:36:17;;;;;;;18.65;3.42;;;6.60;99.90;;;;;;5028184;28;20119;-77
2023/01/14 01:38:44;;;;;;;22.20;3.10;;;6.50;99.90;;;;;;5030029;28;20041;-76
2023/01/14 01:41:25;;;;;;;16.50;2.22;;;6.50;99.90;;;;;;5021912;28;20075;-76
2023/01/14 01:44:13;;;;;;;13.43;2.03;;;6.40;99.90;;;;;;5043592;28;20036;-77
2023/01/14 01:46:41;;;;;;;20.65;3.47;;;6.30;99.90;;;;;;5013366;28;20307;-76
2023/01/14 01:49:21;;;;;;;25.13;3.28;;;6.30;99.90;;;;;;5029568;28;20061;-77
2023/01/14 01:52:08;;;;;;;16.45;2.42;;;6.30;99.90;;;;;;5018657;28;20045;-76
2023/01/14 01:54:38;;;;;;;20.15;2.83;;;6.20;99.90;;;;;;5026915;28;20049;-77
2023/01/14 01:57:07;;;;;;;;;;;6.20;99.90;;;;;;5029922;28;20033;-76
2023/01/14 01:59:39;;;;;;;25.42;2.72;;;6.20;99.90;;;;;;5028106;28;20473;-76
2023/01/14 02:02:08;;;;;;;18.05;2.78;;;6.10;99.90;;;;;;5019524;28;20048;-76
2023/01/14 02:04:34;;;;;;;22.92;2.40;;;6.10;99.90;;;;;;5027525;28;20029;-76
2023/01/14 02:07:12;;;;;;;27.42;2.97;;;6.00;99.90;;;;;;5044379;28;20049;-76
2023/01/14 02:09:38;;;;;;;16.83;2.38;;;6.00;99.90;;;;;;5044485;28;20052;-76
2023/01/14 02:12:36;;;;;;;20.25;2.15;;;6.00;99.90;;;;;;5019433;28;20037;-76
2023/01/14 02:15:38;;;;;;;16.67;1.75;;;5.90;99.90;;;;;;5041929;28;20041;-76
2023/01/14 02:18:23;;;;;;;17.67;1.67;;;5.90;99.90;;;;;;4996819;28;20045;-77
2023/01/14 02:21:16;;;;;;;25.00;3.03;;;5.90;99.90;;;;;;5028504;28;20049;-76
2023/01/14 02:23:56;;;;;;;19.75;1.75;;;5.80;99.90;;;;;;5020809;28;20516;-77
2023/01/14 02:26:43;;;;;;;17.92;1.98;;;5.80;99.90;;;;;;5032042;28;20028;-77
2023/01/14 02:29:45;;;;;;;15.55;2.28;;;5.90;99.90;;;;;;5016605;28;20389;-77
2023/01/14 02:32:21;;;;;;;21.30;2.97;;;5.90;99.90;;;;;;5002921;28;20029;-76
2023/01/14 02:34:55;;;;;;;17.08;2.00;;;5.90;99.90;;;;;;5027224;28;20084;-76
2023/01/14 02:37:28;;;;;;;15.60;2.10;;;5.80;99.90;;;;;;5043524;28;20032;-76
2023/01/14 02:40:08;;;;;;;19.58;2.55;;;5.80;99.90;;;;;;5027136;28;20044;-76
2023/01/14 02:45:42;;;;;;;15.88;2.50;;;5.70;99.90;;;;;;5027680;28;20037;-76
2023/01/14 02:48:09;;;;;;;17.42;2.75;;;5.60;99.90;;;;;;5046318;28;20032;-76
2023/01/14 02:50:38;;;;;;;31.58;3.45;;;5.60;99.90;;;;;;5018490;28;20032;-76
2023/01/14 02:53:15;;;;;;;20.80;3.00;;;5.60;99.90;;;;;;5036799;28;20985;-77
2023/01/14 02:55:41;;;;;;;12.70;1.88;;;5.50;99.90;;;;;;5013090;28;20033;-76
2023/01/14 02:58:38;;;;;;;20.98;3.67;;;5.50;99.90;;;;;;5044229;28;20044;-76
2023/01/14 03:01:26;;;;;;;22.88;3.33;;;5.50;99.90;;;;;;5009212;28;20043;-76
2023/01/14 03:04:14;;;;;;;20.33;2.95;;;5.40;99.90;;;;;;5013030;28;20033;-76
2023/01/14 03:07:17;;;;;;;20.85;3.00;;;5.40;99.90;;;;;;5026895;28;20048;-76
2023/01/14 03:10:12;;;;;;;22.23;4.05;;;5.40;99.90;;;;;;5032280;28;20033;-76
2023/01/14 03:12:53;;;;;;;30.92;5.00;;;5.40;99.90;;;;;;5019955;28;20041;-77
2023/01/14 03:15:36;;;;;;;26.77;4.35;;;5.30;99.90;;;;;;5027052;28;20488;-78
2023/01/14 03:18:12;;;;;;;;;;;5.30;99.90;;;;;;5046280;28;20403;-78
2023/01/14 03:20:43;;;;;;;15.93;3.05;;;5.30;99.90;;;;;;5057849;28;19928;-78
2023/01/14 03:23:15;;;;;;;19.58;3.53;;;5.30;99.90;;;;;;5037453;28;20077;-78
2023/01/14 03:25:44;;;;;;;39.47;5.40;;;5.30;99.90;;;;;;5033274;28;20414;-77
2023/01/14 03:28:25;;;;;;;22.13;3.03;;;5.30;99.90;;;;;;5042656;28;20045;-77
2023/01/14 03:30:59;;;;;;;15.68;2.40;;;5.30;99.90;;;;;;5045767;28;20044;-77
2023/01/14 03:33:33;;;;;;;28.85;4.32;;;5.30;99.90;;;;;;5007400;28;20543;-78
2023/01/14 03:36:01;;;;;;;20.55;2.97;;;5.30;99.90;;;;;;5008949;28;20041;-78
2023/01/14 03:38:42;;;;;;;32.70;3.72;;;5.20;99.90;;;;;;5042979;28;20498;-78
2023/01/14 03:41:11;;;;;;;31.27;3.92;;;5.30;99.90;;;;;;5007353;28;20631;-77
2023/01/14 03:43:46;;;;;;;35.47;4.45;;;5.20;99.90;;;;;;5004669;28;20368;-77
2023/01/14 03:46:12;;;;;;;30.30;3.50;;;5.20;99.90;;;;;;5041401;28;20415;-78
2023/01/14 03:48:39;;;;;;;27.25;3.53;;;5.20;99.90;;;;;;5025183;28;20053;-77
2023/01/14 03:51:05;;;;;;;38.72;4.47;;;5.20;99.90;;;;;;5038621;28;20045;-77
2023/01/14 03:53:45;;;;;;;35.28;4.40;;;5.30;99.90;;;;;;5039666;28;20155;-78
2023/01/14 03:56:23;;;;;;;20.13;3.15;;;5.30;99.90;;;;;;5025677;28;20041;-77
2023/01/14 03:59:26;;;;;;;23.98;2.50;;;5.30;99.90;;;;;;5025244;28;20041;-77
2023/01/14 04:01:54;;;;;;;33.17;4.85;;;5.30;99.90;;;;;;5034162;28;20041;-77
2023/01/14 04:04:23;;;;;;;28.15;3.40;;;5.30;99.90;;;;;;5011175;28;20037;-78
2023/01/14 04:06:50;;;;;;;24.35;3.95;;;5.30;99.90;;;;;;5030220;28;20037;-77
2023/01/14 04:09:16;;;;;;;31.15;3.78;;;5.30;99.90;;;;;;5046841;28;20037;-78
2023/01/14 04:11:43;;;;;;;25.48;3.25;;;5.30;99.90;;;;;;5021927;28;20885;-77
2023/01/14 04:16:54;;;;;;;24.10;3.08;;;5.20;99.90;;;;;;5029644;28;20041;-78
2023/01/14 04:19:20;;;;;;;25.98;3.58;;;5.30;99.90;;;;;;5030455;28;20044;-79
2023/01/14 04:21:46;;;;;;;26.42;3.60;;;5.30;99.90;;;;;;5021459;28;20041;-77
2023/01/14 04:24:13;;;;;;;30.15;3.75;;;5.30;99.90;;;;;;5045498;28;20044;-77
2023/01/14 04:26:39;;;;;;;26.63;3.13;;;5.30;99.90;;;;;;5045948;28;20428;-77
2023/01/14 04:29:05;;;;;;;20.63;3.75;;;5.40;99.90;;;;;;5029709;28;20044;-77
2023/01/14 04:31:32;;;;;;;32.75;4.45;;;5.50;99.90;;;;;;5039912;28;20500;-77
2023/01/14 04:33:58;;;;;;;27.42;3.45;;;5.50;99.90;;;;;;5029224;28;20052;-77
2023/01/14 04:36:24;;;;;;;26.42;3.80;;;5.60;99.90;;;;;;5045930;28;20059;-77
2023/01/14 04:38:50;;;;;;;43.97;5.07;;;5.60;99.90;;;;;;5049995;28;20037;-76
2023/01/14 04:44:02;;;;;;;36.38;3.88;;;5.70;99.90;;;;;;5047127;28;20049;-76
2023/01/14 04:46:28;;;;;;;27.38;3.72;;;5.80;99.90;;;;;;5045943;28;20562;-76
2023/01/14 04:48:54;;;;;;;24.70;3.58;;;5.80;99.90;;;;;;5046381;28;20037;-76
2023/01/14 04:51:20;;;;;;;29.98;3.83;;;5.80;99.90;;;;;;5042344;28;20080;-76
2023/01/14 04:53:47;;;;;;;41.42;5.53;;;5.80;99.90;;;;;;5029540;28;20037;-76
2023/01/14 04:56:13;;;;;;;46.90;4.57;;;5.90;99.90;;;;;;5045666;28;20040;-76
2023/01/14 04:58:39;;;;;;;36.42;4.35;;;5.90;99.90;;;;;;5013459;28;20029;-76
2023/01/14 05:01:05;;;;;;;33.08;3.20;;;5.90;99.90;;;;;;5043621;28;20033;-76
2023/01/14 05:03:32;;;;;;;42.42;5.30;;;6.00;99.90;;;;;;5041552;28;20048;-75
2023/01/14 05:05:58;;;;;;;34.45;3.92;;;6.00;99.90;;;;;;5045113;28;20531;-75
2023/01/14 05:08:24;;;;;;;45.08;5.07;;;6.00;99.90;;;;;;5045824;28;20052;-77
2023/01/14 05:10:50;;;;;;;42.92;4.95;;;6.00;99.90;;;;;;5012274;28;20049;-76
2023/01/14 05:13:17;;;;;;;25.88;4.25;;;6.00;99.90;;;;;;5044225;28;20040;-76
2023/01/14 05:15:45;;;;;;;27.95;2.70;;;5.90;99.90;;;;;;5027864;28;20045;-77
2023/01/14 05:18:13;;;;;;;26.60;2.38;;;5.90;99.90;;;;;;5045669;28;20116;-77
2023/01/14 05:20:41;;;;;;;17.83;2.80;;;5.90;99.90;;;;;;5035509;28;20403;-78
2023/01/14 05:23:12;;;;;;;27.75;2.90;;;5.90;99.90;;;;;;5021229;28;20063;-77
2023/01/14 05:25:38;;;;;;;21.88;2.55;;;6.00;99.90;;;;;;5044331;28;20040;-77
2023/01/14 05:28:08;;;;;;;35.45;4.95;;;6.00;99.90;;;;;;5029377;28;20048;-77
2023/01/14 05:30:35;;;;;;;30.45;4.18;;;6.00;99.90;;;;;;5045321;28;20040;-77
2023/01/14 05:33:01;;;;;;;33.88;4.85;;;6.00;99.90;;;;;;5020286;28;20491;-78
2023/01/14 05:35:28;;;;;;;47.13;4.97;;;6.00;99.90;;;;;;5046106;28;20428;-77
2023/01/14 05:37:55;;;;;;;29.95;3.20;;;6.00;99.90;;;;;;5029576;28;20040;-77
2023/01/14 05:40:21;;;;;;;41.90;5.15;;;6.00;99.90;;;;;;5021696;28;20386;-78
2023/01/14 05:45:48;;;;;;;40.83;5.03;;;6.00;99.90;;;;;;5052049;28;20035;-77
2023/01/14 05:48:24;;;;;;;34.63;3.78;;;6.00;99.90;;;;;;5044759;28;20041;-77
2023/01/14 05:50:52;;;;;;;39.45;3.90;;;6.00;99.90;;;;;;5011377;28;20049;-77
2023/01/14 05:53:20;;;;;;;27.98;2.83;;;6.00;99.90;;;;;;5021369;28;20029;-77
2023/01/14 05:55:47;;;;;;;39.25;4.10;;;6.00;99.90;;;;;;5018662;28;20435;-77
2023/01/14 05:58:13;;;;;;;34.50;4.30;;;6.00;99.90;;;;;;5027630;28;20033;-77
2023/01/14 06:06:22;;;;;;;32.50;3.53;;;5.90;99.90;;;;;;5044529;28;20044;-77
2023/01/14 06:08:51;;;;;;;28.45;2.20;;;5.90;99.90;;;;;;5044569;28;20048;-77
2023/01/14 06:11:19;;;;;;;32.53;3.58;;;5.90;99.90;;;;;;5041519;28;20581;-77
2023/01/14 06:13:50;;;;;;;30.67;4.03;;;5.90;99.90;;;;;;5041874;28;20036;-76
2023/01/14 06:16:16;;;;;;;34.72;3.72;;;5.90;99.90;;;;;;5034367;28;20047;-77
2023/01/14 06:18:43;;;;;;;25.75;3.80;;;5.90;99.90;;;;;;5043904;28;20029;-77
2023/01/14 06:21:12;;;;;;;25.42;3.17;;;6.00;99.90;;;;;;5039258;28;20044;-77
2023/01/14 06:23:38;;;;;;;20.02;3.10;;;6.00;99.90;;;;;;5026798;28;20057;-77
2023/01/14 06:26:10;;;;;;;22.55;3.00;;;6.00;99.90;;;;;;5045499;28;20045;-77
2023/01/14 06:28:36;;;;;;;28.40;3.55;;;6.00;99.90;;;;;;5044018;28;20041;-77
2023/01/14 06:31:08;;;;;;;31.77;3.97;;;6.00;99.90;;;;;;5043253;28;20044;-77
2023/01/14 06:33:35;;;;;;;29.27;2.63;;;6.10;99.90;;;;;;5022593;28;20044;-78
2023/01/14 06:36:01;;;;;;;26.98;2.47;;;6.10;99.90;;;;;;5018734;28;20037;-78
2023/01/14 06:38:27;;;;;;;22.33;3.70;;;6.10;99.90;;;;;;5043491;28;20060;-78
2023/01/14 06:40:58;;;;;;;26.92;2.72;;;6.10;99.90;;;;;;5026230;28;20041;-77
2023/01/14 06:43:24;;;;;;;22.65;2.90;;;6.20;99.90;;;;;;5039065;28;20480;-78
2023/01/14 06:45:55;;;;;;;28.17;2.20;;;6.20;99.90;;;;;;5011385;28;20400;-77
2023/01/14 06:48:22;;;;;;;21.45;2.75;;;6.20;99.90;;;;;;5024517;28;20409;-77
2023/01/14 06:50:49;;;;;;;21.40;2.00;;;6.20;99.90;;;;;;5046643;28;20432;-77
2023/01/14 06:53:16;;;;;;;25.77;3.00;;;6.30;99.90;;;;;;5019832;28;20443;-77
2023/01/14 06:55:42;;;;;;;29.27;3.88;;;6.30;99.90;;;;;;5045964;28;20033;-77
2023/01/14 06:58:09;;;;;;;33.03;2.92;;;6.30;99.90;;;;;;5044803;28;20407;-77
2023/01/14 07:00:36;;;;;;;31.80;5.63;;;6.30;99.90;;;;;;5044902;28;20684;-78
2023/01/14 07:03:02;;;;;;;33.42;4.75;;;6.40;99.90;;;;;;5035237;28;20412;-79
2023/01/14 07:05:28;;;;;;;31.63;5.60;;;6.40;99.90;;;;;;5027412;28;20029;-78
2023/01/14 07:07:55;;;;;;;29.23;4.40;;;6.40;99.90;;;;;;5042961;28;20483;-78
2023/01/14 07:10:21;;;;;;;40.47;13.95;;;6.40;99.90;;;;;;5046382;28;20064;-78
2023/01/14 07:12:49;;;;;;;34.05;10.63;;;6.40;99.90;;;;;;5019439;28;20124;-77
2023/01/14 07:15:18;;;;;;;39.42;8.27;;;6.40;99.90;;;;;;5045365;28;20029;-80
2023/01/14 07:17:45;;;;;;;31.75;4.30;;;6.50;99.90;;;;;;5027443;28;20052;-78
2023/01/14 07:20:12;;;;;;;27.98;3.60;;;6.40;99.90;;;;;;5029065;28;20040;-78
2023/01/14 07:22:39;;;;;;;31.05;4.45;;;6.50;99.90;;;;;;5018780;28;20065;-78
2023/01/14 07:25:06;;;;;;;25.48;3.60;;;6.50;99.90;;;;;;5027085;28;20033;-78
2023/01/14 07:27:33;;;;;;;20.48;2.67;;;6.50;99.90;;;;;;5046571;28;20399;-79
2023/01/14 07:30:00;;;;;;;26.20;3.15;;;6.50;99.90;;;;;;5043909;28;20033;-81
2023/01/14 07:32:26;;;;;;;27.75;3.47;;;6.50;99.90;;;;;;5035286;28;20033;-81
2023/01/14 07:34:53;;;;;;;35.47;3.38;;;6.50;99.90;;;;;;5036958;28;20041;-80
2023/01/14 07:37:19;;;;;;;25.17;3.45;;;6.50;99.90;;;;;;5043113;28;20399;-80
2023/01/14 07:39:45;;;;;;;25.30;3.60;;;6.50;99.90;;;;;;5030221;28;20415;-81
2023/01/14 07:42:11;;;;;;;23.75;3.75;;;6.50;99.90;;;;;;5041879;28;20044;-81
2023/01/14 07:44:38;;;;;;;25.92;3.85;;;6.50;99.90;;;;;;5050162;28;20045;-80
2023/01/14 07:47:04;;;;;;;22.02;3.40;;;6.50;99.90;;;;;;5035242;28;20036;-79
2023/01/14 07:49:30;;;;;;;25.40;3.50;;;6.50;99.90;;;;;;5049279;28;20037;-83
2023/01/14 07:51:57;;;;;;;33.38;4.00;;;6.50;99.90;;;;;;5040428;28;20055;-82
2023/01/14 07:54:23;;;;;;;24.00;3.35;;;6.50;99.90;;;;;;5034411;28;20048;-81
2023/01/14 07:56:49;;;;;;;25.15;3.00;;;6.50;99.90;;;;;;5032319;28;20052;-79
2023/01/14 07:59:16;;;;;;;23.23;3.45;;;6.50;99.90;;;;;;5051038;28;20036;-81
2023/01/14 08:01:42;;;;;;;25.23;3.67;;;6.50;99.90;;;;;;5040975;28;20421;-80
2023/01/14 08:04:09;;;;;;;23.52;3.58;;;6.50;99.90;;;;;;5049660;28;20033;-82
2023/01/14 08:06:35;;;;;;;32.63;4.20;;;6.50;99.90;;;;;;5051383;28;20037;-81
2023/01/14 08:09:02;;;;;;;22.50;3.40;;;6.50;99.90;;;;;;5031597;28;20044;-82
2023/01/14 08:11:29;;;;;;;25.75;3.55;;;6.50;99.90;;;;;;5012418;28;20083;-81
2023/01/14 08:13:55;;;;;;;21.98;3.67;;;6.50;99.90;;;;;;5047606;28;20040;-81
2023/01/14 08:16:22;;;;;;;26.98;4.45;;;6.50;99.90;;;;;;5028617;28;20041;-81
2023/01/14 08:18:48;;;;;;;18.55;4.20;;;6.60;99.90;;;;;;5021763;28;20045;-82
2023/01/14 08:21:15;;;;;;;25.20;3.13;;;6.60;99.90;;;;;;5043123;28;20411;-82
2023/01/14 08:23:41;;;;;;;19.77;3.20;;;6.60;99.90;;;;;;5027515;28;20519;-83
2023/01/14 08:26:11;;;;;;;21.65;4.43;;;6.60;99.90;;;;;;5030226;28;20067;-80
2023/01/14 08:28:38;;;;;;;20.45;3.72;;;6.60;99.90;;;;;;5046822;28;20032;-83
2023/01/14 08:31:07;;;;;;;20.35;3.83;;;6.60;99.90;;;;;;5027575;28;20040;-82
2023/01/14 08:33:34;;;;;;;23.13;4.50;;;6.60;99.90;;;;;;5015001;28;20025;-82
2023/01/14 08:36:19;;;;;;;24.70;4.63;;;6.70;99.90;;;;;;5013684;28;20513;-82
2023/01/14 08:38:50;;;;;;;21.00;4.65;;;6.70;99.90;;;;;;5029857;28;20033;-82
2023/01/14 08:41:17;;;;;;;23.63;4.90;;;6.70;99.90;;;;;;5012912;28;20526;-83
2023/01/14 08:43:48;;;;;;;21.00;4.05;;;6.70;99.90;;;;;;5044621;28;20076;-82
2023/01/14 08:46:14;;;;;;;14.93;4.55;;;6.70;99.90;;;;;;5029325;28;20060;-81
2023/01/14 08:48:41;;;;;;;20.75;4.25;;;6.80;99.90;;;;;;5046018;28;20036;-83
2023/01/14 08:51:10;;;;;;;20.13;4.13;;;6.80;99.90;;;;;;5042660;28;20159;-81
2023/01/14 08:53:38;;;;;;;22.27;5.07;;;6.80;99.90;;;;;;5014637;28;20055;-82
2023/01/14 08:56:07;;;;;;;19.20;4.63;;;6.80;99.90;;;;;;5013846;28;20049;-80
2023/01/14 08:58:35;;;;;;;18.30;4.95;;;6.80;99.90;;;;;;5041335;28;20392;-85
2023/01/14 09:01:07;;;;;;;16.88;4.35;;;6.90;99.90;;;;;;5036796;28;20518;-79
2023/01/14 09:03:35;;;;;;;14.57;4.22;;;6.90;99.90;;;;;;5018231;28;20496;-82
2023/01/14 09:06:12;;;;;;;18.75;6.15;;;6.90;99.90;;;;;;5009396;28;20045;-81
2023/01/14 09:17:12;;;;;;;23.13;11.60;;;7.10;99.90;;;;;;5044870;28;20036;-85
2023/01/14 09:19:54;;;;;;;21.73;12.02;;;7.10;99.90;;;;;;5027601;28;20065;-83
2023/01/14 09:22:24;;;;;;;13.00;5.53;;;7.10;99.90;;;;;;5016781;28;20052;-83
2023/01/14 09:24:51;;;;;;;21.58;6.18;;;7.10;99.90;;;;;;5042097;28;20041;-84
2023/01/14 09:27:18;;;;;;;22.83;6.18;;;7.20;99.90;;;;;;5041866;28;20029;-83
2023/01/14 09:29:45;;;;;;;17.80;7.45;;;7.20;99.90;;;;;;5014781;28;20405;-83
2023/01/14 09:32:13;;;;;;;19.73;4.70;;;7.20;99.90;;;;;;5034349;28;20044;-85
2023/01/14 09:34:41;;;;;;;12.70;3.58;;;7.30;99.90;;;;;;5044741;28;20037;-81
2023/01/14 09:37:09;;;;;;;14.35;3.55;;;7.30;99.90;;;;;;5028093;28;20480;-82
2023/01/14 09:39:35;;;;;;;14.63;3.47;;;7.30;99.90;;;;;;5045375;28;20045;-81
2023/01/14 09:42:07;;;;;;;12.63;3.50;;;7.30;99.90;;;;;;5020656;28;20523;-81
2023/01/14 09:44:34;;;;;;;14.00;4.13;;;7.40;99.90;;;;;;5048462;28;20032;-82
2023/01/14 09:47:00;;;;;;;14.85;3.55;;;7.40;99.90;;;;;;5034641;28;20045;-81
2023/01/14 09:49:28;;;;;;;20.58;4.68;;;7.40;99.90;;;;;;5049398;28;20048;-81
2023/01/14 09:51:55;;;;;;;16.52;3.65;;;7.40;99.90;;;;;;5021601;28;20053;-81
2023/01/14 09:54:58;;;;;;;12.23;2.53;;;7.50;99.90;;;;;;5050316;28;20041;-81
2023/01/14 09:57:43;;;;;;;;;;;7.50;99.90;;;;;;5062059;28;20484;-81
2023/01/14 10:00:33;;;;;;;15.40;2.70;;;7.50;99.90;;;;;;5046433;28;19908;-80
2023/01/14 10:03:25;;;;;;;9.30;2.30;;;7.50;99.90;;;;;;5035497;28;20384;-81
2023/01/14 10:06:11;;;;;;;11.85;2.53;;;7.50;99.90;;;;;;5037339;28;20409;-82
2023/01/14 10:08:49;;;;;;;18.10;3.00;;;7.50;99.90;;;;;;5044434;28;20032;-81
2023/01/14 10:11:16;;;;;;;12.15;2.80;;;7.60;99.90;;;;;;5023553;28;20044;-81
2023/01/14 10:13:49;;;;;;;9.35;1.88;;;7.60;99.90;;;;;;5028080;28;20045;-80
2023/01/14 10:16:24;;;;;;;8.10;1.65;;;7.60;99.90;;;;;;5045572;28;20043;-79
2023/01/14 10:19:15;;;;;;;7.60;1.67;;;7.60;99.90;;;;;;5047940;28;20036;-81
2023/01/14 10:22:11;;;;;;;10.07;2.45;;;7.60;99.90;;;;;;5036803;28;20041;-81
2023/01/14 10:24:41;;;;;;;11.00;2.30;;;7.70;99.90;;;;;;5016501;28;20038;-82
2023/01/14 10:27:16;;;;;;;8.15;1.75;;;7.70;99.90;;;;;;5029318;28;21300;-79
2023/01/14 10:29:43;;;;;;;10.82;1.85;;;7.70;99.90;;;;;;5033848;28;20049;-80
2023/01/14 10:32:13;;;;;;;6.63;1.73;;;7.70;99.90;;;;;;5018931;28;20507;-79
2023/01/14 10:34:46;;;;;;;10.15;1.98;;;7.70;99.90;;;;;;5028486;28;20041;-80
2023/01/14 10:37:12;;;;;;;6.93;1.45;;;7.80;99.90;;;;;;5018978;28;20037;-81
2023/01/14 10:39:45;;;;;;;12.98;2.22;;;7.80;99.90;;;;;;5051342;28;20028;-80
2023/01/14 10:42:12;;;;;;;7.22;2.00;;;7.80;99.90;;;;;;5037902;28;20036;-80
2023/01/14 10:44:43;;;;;;;8.38;2.20;;;7.80;99.90;;;;;;5032797;28;20048;-79
2023/01/14 10:47:14;;;;;;;5.50;1.85;;;7.80;99.90;;;;;;5027814;28;20036;-79
2023/01/14 10:49:57;;;;;;;9.05;2.00;;;7.80;99.90;;;;;;5030253;28;20057;-81
2023/01/14 10:52:26;;;;;;;13.02;2.15;;;7.90;99.90;;;;;;5019787;28;20068;-81
2023/01/14 10:54:56;;;;;;;7.05;1.90;;;7.80;99.90;;;;;;5027912;28;20052;-80
2023/01/14 10:57:24;;;;;;;167.50;10.02;;;7.90;99.90;;;;;;5045467;28;20033;-83
2023/01/14 10:59:52;;;;;;;10.55;2.63;;;7.90;99.90;;;;;;5030238;28;20479;-80
2023/01/14 11:02:26;;;;;;;10.27;1.98;;;8.00;99.90;;;;;;5019930;28;20044;-81
2023/01/14 11:04:52;;;;;;;6.15;1.55;;;8.00;99.90;;;;;;5037158;28;20412;-80
2023/01/14 11:07:35;;;;;;;9.65;2.20;;;8.10;99.90;;;;;;5045298;28;20033;-81
2023/01/14 11:10:17;;;;;;;8.45;1.67;;;8.10;99.90;;;;;;4995864;28;20040;-79
2023/01/14 11:12:43;;;;;;;12.80;2.10;;;8.10;99.90;;;;;;5018549;28;20045;-80
2023/01/14 11:15:34;;;;;;;8.85;2.00;;;8.10;99.90;;;;;;5045760;28;20044;-83
2023/01/14 11:18:15;;;;;;;9.60;2.72;;;8.20;99.90;;;;;;5020032;28;20033;-80
2023/01/14 11:20:41;;;;;;;8.13;2.28;;;8.20;99.90;;;;;;5043268;28;20041;-81
2023/01/14 11:23:25;;;;;;;7.47;1.50;;;8.20;99.90;;;;;;5035127;28;20060;-81
2023/01/14 11:25:51;;;;;;;8.18;2.00;;;8.20;99.90;;;;;;5045116;28;20049;-81
2023/01/14 11:28:18;;;;;;;12.48;3.90;;;8.30;99.90;;;;;;5015713;28;20047;-83
2023/01/14 11:30:48;;;;;;;26.15;16.00;;;8.30;99.90;;;;;;5044423;28;20365;-83
2023/01/14 11:33:23;;;;;;;11.70;6.55;;;8.30;99.90;;;;;;5003998;28;20040;-82
2023/01/14 11:35:53;;;;;;;10.98;7.07;;;8.40;99.90;;;;;;5014631;28;20041;-83
2023/01/14 11:38:21;;;;;;;11.18;5.05;;;8.40;99.90;;;;;;5044409;28;20036;-80
2023/01/14 11:44:09;;;;;;;9.20;2.60;;;8.40;99.90;;;;;;5044669;28;20037;-81
2023/01/14 11:46:41;;;;;;;9.55;2.20;;;8.50;99.90;;;;;;5045720;28;20040;-81
2023/01/14 11:49:22;;;;;;;7.43;1.70;;;8.50;99.90;;;;;;5028182;28;20048;-81
2023/01/14 11:52:15;;;;;;;9.18;1.88;;;8.50;99.90;;;;;;5036579;28;20088;-81
2023/01/14 11:54:44;;;;;;;10.07;1.48;;;8.50;99.90;;;;;;5037221;28;20460;-81
2023/01/14 11:57:17;;;;;;;8.40;1.48;;;8.60;99.90;;;;;;5028411;28;20044;-81
2023/01/14 11:59:45;;;;;;;7.20;1.85;;;8.60;99.90;;;;;;5042382;28;20048;-80
2023/01/14 12:02:32;;;;;;;9.15;1.55;;;8.60;99.90;;;;;;5007165;28;20044;-80
2023/01/14 12:05:13;;;;;;;8.50;1.48;;;8.70;99.90;;;;;;5025741;28;21221;-81
2023/01/14 12:07:55;;;;;;;8.93;1.45;;;8.70;99.90;;;;;;5024716;28;20044;-81
2023/01/14 12:10:33;;;;;;;6.50;1.08;;;8.70;99.90;;;;;;5026933;28;20043;-81
2023/01/14 12:19:14;;;;;;;5.35;1.10;;;8.80;99.90;;;;;;5042324;28;20419;-82
2023/01/14 12:21:49;;;;;;;10.00;2.50;;;8.80;99.90;;;;;;5017731;28;20041;-81
2023/01/14 12:24:26;;;;;;;12.07;2.05;;;8.90;99.90;;;;;;5043747;28;20503;-81
2023/01/14 12:26:56;;;;;;;6.07;1.40;;;8.90;99.90;;;;;;5035067;28;20041;-81
2023/01/14 12:29:33;;;;;;;7.10;1.73;;;8.90;99.90;;;;;;5031314;28;20499;-81
2023/01/14 12:32:06;;;;;;;14.63;1.73;;;8.90;99.90;;;;;;5023792;28;20039;-80
2023/01/14 12:34:41;;;;;;;8.38;1.70;;;8.90;99.90;;;;;;5040072;28;20037;-82
2023/01/14 12:37:16;;;;;;;5.65;1.80;;;8.90;99.90;;;;;;5031872;28;20490;-80
2023/01/14 12:45:41;;;;;;;4.70;1.00;;;9.00;99.90;;;;;;5050749;28;20399;-82
2023/01/14 12:48:10;;;;;;;2.92;1.25;;;9.00;99.90;;;;;;5049050;28;20040;-80
2023/01/14 12:50:43;;;;;;;1.70;1.23;;;9.00;99.90;;;;;;5029756;28;20044;-80
2023/01/14 12:53:36;;;;;;;3.45;1.23;;;9.00;99.90;;;;;;5019862;28;20038;-81
2023/01/14 12:56:06;;;;;;;3.78;0.88;;;9.00;99.90;;;;;;5038744;28;20053;-80
2023/01/14 12:58:36;;;;;;;3.33;0.93;;;9.10;99.90;;;;;;5045857;28;20043;-80
2023/01/14 13:01:07;;;;;;;3.00;0.95;;;9.00;99.90;;;;;;5045872;28;20040;-80
2023/01/14 13:03:34;;;;;;;2.70;1.50;;;9.10;99.90;;;;;;5014012;28;20037;-81
2023/01/14 13:06:14;;;;;;;2.92;0.88;;;9.10;99.90;;;;;;5048432;28;20472;-81
2023/01/14 13:08:41;;;;;;;2.88;1.67;;;9.10;99.90;;;;;;5029137;28;20051;-81
2023/01/14 13:11:16;;;;;;;2.85;1.05;;;9.10;99.90;;;;;;5031803;28;20475;-80
2023/01/14 13:13:50;;;;;;;4.57;1.15;;;9.10;99.90;;;;;;5046344;28;20048;-81
2023/01/14 13:16:43;;;;;;;1.67;1.10;;;9.10;99.90;;;;;;5046979;28;20108;-81
2023/01/14 13:19:25;;;;;;;;;;;9.10;99.90;;;;;;5027016;28;20428;-81
2023/01/14 13:22:09;;;;;;;2.13;1.38;;;9.20;99.90;;;;;;5039464;28;19917;-81
2023/01/14 13:24:43;;;;;;;3.25;1.65;;;9.20;99.90;;;;;;5063809;28;20124;-81
2023/01/14 13:27:31;;;;;;;3.53;1.63;;;9.20;99.90;;;;;;5026034;28;20515;-81
2023/01/14 13:30:16;;;;;;;3.80;2.30;;;9.20;99.90;;;;;;5028825;28;20492;-80
2023/01/14 13:32:53;;;;;;;4.70;2.30;;;9.20;99.90;;;;;;5034949;28;20423;-80
2023/01/14 13:35:21;;;;;;;2.42;1.30;;;9.20;99.90;;;;;;5045063;28;20450;-81
2023/01/14 13:37:49;;;;;;;3.28;1.73;;;9.30;99.90;;;;;;5047528;28;20033;-81
2023/01/14 13:40:24;;;;;;;2.55;1.92;;;9.20;99.90;;;;;;5046374;28;20032;-80
2023/01/14 13:43:04;;;;;;;2.97;1.50;;;9.30;99.90;;;;;;5019589;28;20396;-80
2023/01/14 13:45:34;;;;;;;2.85;1.95;;;9.30;99.90;;;;;;5028767;28;20029;-82
2023/01/14 13:48:14;;;;;;;2.80;1.83;;;9.30;99.90;;;;;;5011084;28;20047;-81
2023/01/14 13:50:41;;;;;;;2.33;2.13;;;9.30;99.90;;;;;;5035726;28;20037;-80
2023/01/14 13:53:25;;;;;;;3.65;2.55;;;9.40;99.90;;;;;;5021231;28;20044;-81